Time;durP1;ratioP1;P1;durP2;ratioP2;P2;SDS_P1;SDS_P2;PMS_P1;PMS_P2;Temp;Humidity;BMP_temperature;BMP_pressure;BME280_temperature;BME280_humidity;BME280_pressure;Samples;Min_cycle;Max_cycle;Signal;HPM_P1;HPM_P2
2022/06/11 00:00:45;;;;;;;12.77;8.77;;;21.50;88.40;;;;;;5094123;28;20480;-36
2022/06/11 00:03:15;;;;;;;11.37;7.77;;;21.50;88.90;;;;;;5093807;28;20486;-37
2022/06/11 00:05:43;;;;;;;7.30;6.30;;;21.50;89.10;;;;;;5093767;28;20454;-34
2022/06/11 00:08:11;;;;;;;10.57;7.20;;;21.50;89.40;;;;;;5093342;28;20504;-38
2022/06/11 00:10:38;;;;;;;7.83;7.03;;;21.50;89.60;;;;;;5093861;28;20454;-38
2022/06/11 00:13:06;;;;;;;11.10;5.93;;;21.50;90.00;;;;;;5093935;28;20444;-38
2022/06/11 00:15:34;;;;;;;9.67;5.73;;;21.40;90.00;;;;;;5093854;28;20466;-34
2022/06/11 00:18:01;;;;;;;13.27;7.00;;;21.50;90.10;;;;;;5093247;28;20450;-38
2022/06/11 00:20:29;;;;;;;8.03;6.60;;;21.50;90.30;;;;;;5093274;28;20430;-37
2022/06/11 00:22:56;;;;;;;7.17;6.07;;;21.40;90.30;;;;;;5093268;28;20430;-36
2022/06/11 00:25:25;;;;;;;9.37;6.60;;;21.40;90.20;;;;;;5094297;28;20485;-35
2022/06/11 00:27:52;;;;;;;6.30;5.70;;;21.40;90.50;;;;;;5094123;28;20502;-34
2022/06/11 00:30:21;;;;;;;7.03;6.40;;;21.40;90.40;;;;;;5094564;28;20494;-35
2022/06/11 00:32:48;;;;;;;9.13;7.10;;;21.40;90.60;;;;;;5094987;28;20441;-37
2022/06/11 00:35:16;;;;;;;13.07;7.13;;;21.40;91.00;;;;;;5095539;28;20491;-35
2022/06/11 00:37:43;;;;;;;6.13;5.13;;;21.40;91.40;;;;;;5098323;28;20442;-36
2022/06/11 00:40:14;;;;;;;7.50;5.83;;;21.30;91.20;;;;;;5098299;28;20482;-35
2022/06/11 00:42:45;;;;;;;8.67;6.33;;;21.40;91.30;;;;;;5098389;28;20457;-35
2022/06/11 00:45:22;;;;;;;12.17;6.50;;;21.40;91.70;;;;;;5098414;28;20462;-35
2022/06/11 00:47:53;;;;;;;7.70;6.90;;;21.30;91.70;;;;;;5098255;28;20462;-32
2022/06/11 00:50:29;;;;;;;9.13;6.10;;;21.40;92.60;;;;;;5098179;28;20438;-35
2022/06/11 00:52:59;;;;;;;8.40;6.30;;;21.30;91.90;;;;;;5097424;28;20439;-37
2022/06/11 00:55:33;;;;;;;8.30;6.03;;;21.30;92.20;;;;;;5098236;28;20447;-35
2022/06/11 00:58:05;;;;;;;7.70;6.90;;;21.30;92.40;;;;;;5097828;28;20517;-34
2022/06/11 01:00:39;;;;;;;10.13;6.83;;;21.20;92.50;;;;;;5098055;28;20494;-32
2022/06/11 01:03:07;;;;;;;7.53;6.73;;;21.20;92.90;;;;;;5098298;28;20467;-37
2022/06/11 01:05:38;;;;;;;11.70;6.43;;;21.20;93.30;;;;;;5098361;28;20426;-36
2022/06/11 01:08:23;;;;;;;7.70;6.93;;;21.20;93.30;;;;;;5097745;28;20458;-33
2022/06/11 01:11:20;;;;;;;7.80;6.63;;;21.10;93.30;;;;;;5097176;28;20462;-36
2022/06/11 01:13:58;;;;;;;6.20;5.60;;;21.10;93.40;;;;;;5088061;28;20901;-36
2022/06/11 01:16:34;;;;;;;7.20;6.50;;;21.10;93.50;;;;;;5097822;28;20470;-34
2022/06/11 01:19:19;;;;;;;6.93;5.30;;;21.10;93.50;;;;;;5097488;28;20441;-34
2022/06/11 01:21:59;;;;;;;6.60;6.00;;;21.10;93.50;;;;;;5097789;28;20526;-37
2022/06/11 01:24:49;;;;;;;7.80;6.40;;;21.00;93.90;;;;;;5097381;28;20437;-36
2022/06/11 01:27:47;;;;;;;9.77;6.37;;;20.90;94.50;;;;;;5091623;28;20519;-36
2022/06/11 01:30:19;;;;;;;9.57;5.93;;;20.90;95.20;;;;;;5089767;28;20435;-37
2022/06/11 01:32:59;;;;;;;8.73;6.10;;;20.80;95.60;;;;;;5096864;28;20426;-37
2022/06/11 01:35:41;;;;;;;7.87;5.50;;;20.80;96.20;;;;;;5088929;28;20446;-34
2022/06/11 01:38:18;;;;;;;7.97;7.07;;;20.80;96.40;;;;;;5097379;28;20423;-35
2022/06/11 01:40:51;;;;;;;10.53;6.60;;;20.70;95.90;;;;;;5097458;28;20493;-38
2022/06/11 01:43:23;;;;;;;10.37;6.13;;;20.70;96.20;;;;;;5097078;28;20438;-37
2022/06/11 01:45:55;;;;;;;7.47;5.80;;;20.70;96.10;;;;;;5097394;28;20426;-35
2022/06/11 01:48:27;;;;;;;5.60;5.07;;;20.60;96.40;;;;;;5084603;28;20996;-35
2022/06/11 01:51:07;;;;;;;6.70;5.60;;;20.60;96.70;;;;;;5091457;28;20440;-36
2022/06/11 01:53:54;;;;;;;6.63;5.90;;;20.60;97.10;;;;;;5096999;28;20545;-36
2022/06/11 01:57:04;;;;;;;8.53;5.80;;;20.60;97.50;;;;;;5081730;28;20427;-31
2022/06/11 01:59:48;;;;;;;10.30;6.90;;;20.60;98.20;;;;;;5096806;28;20486;-35
2022/06/11 02:02:31;;;;;;;5.70;4.77;;;20.50;98.40;;;;;;5097112;28;20886;-41
2022/06/11 02:05:05;;;;;;;5.70;5.20;;;20.40;99.00;;;;;;5081172;28;20583;-35
2022/06/11 02:07:41;;;;;;;6.37;5.77;;;20.50;99.50;;;;;;5095959;28;20871;-33
2022/06/11 02:10:16;;;;;;;10.53;5.73;;;20.40;99.70;;;;;;5096546;28;20430;-35
2022/06/11 02:12:47;;;;;;;8.30;5.80;;;20.40;99.90;;;;;;5096962;28;20514;-33
2022/06/11 02:15:23;;;;;;;10.27;5.37;;;20.40;99.90;;;;;;5096509;28;20421;-36
2022/06/11 02:17:55;;;;;;;6.10;5.50;;;20.30;99.90;;;;;;5090619;28;20490;-41
2022/06/11 02:20:26;;;;;;;6.40;5.40;;;20.30;99.90;;;;;;5083634;28;20434;-35
2022/06/11 02:22:58;;;;;;;6.87;5.33;;;20.30;99.90;;;;;;5080256;28;20961;-35
2022/06/11 02:25:28;;;;;;;7.07;5.33;;;20.20;99.90;;;;;;5095045;28;20445;-37
2022/06/11 02:28:01;;;;;;;6.40;5.37;;;20.20;99.90;;;;;;5094929;28;20474;-35
2022/06/11 02:30:32;;;;;;;8.30;5.80;;;20.20;99.90;;;;;;5095316;28;20437;-37
2022/06/11 02:33:02;;;;;;;7.13;5.37;;;20.10;99.90;;;;;;5095994;28;20446;-33
2022/06/11 02:35:38;;;;;;;7.20;5.10;;;20.10;99.90;;;;;;5096017;28;20453;-36
2022/06/11 02:38:12;;;;;;;6.37;5.77;;;20.00;99.90;;;;;;5096759;28;20431;-35
2022/06/11 02:40:43;;;;;;;9.70;5.30;;;20.10;99.90;;;;;;5095604;28;20550;-34
2022/06/11 02:43:10;;;;;;;11.83;6.60;;;20.00;99.90;;;;;;5084230;28;20520;-35
2022/06/11 02:45:37;;;;;;;6.43;5.27;;;20.10;99.90;;;;;;5092636;28;20514;-32
2022/06/11 02:48:06;;;;;;;6.10;5.00;;;20.10;99.90;;;;;;5096260;28;20493;-32
2022/06/11 02:50:35;;;;;;;9.60;5.23;;;20.00;99.90;;;;;;5096497;28;20433;-32
2022/06/11 02:53:06;;;;;;;8.57;5.27;;;20.00;99.90;;;;;;5096690;28;20465;-34
2022/06/11 02:55:35;;;;;;;7.17;3.90;;;20.10;99.90;;;;;;5096136;28;20430;-37
2022/06/11 02:58:03;;;;;;;6.33;4.70;;;20.10;99.90;;;;;;5096169;28;20498;-35
2022/06/11 03:00:34;;;;;;;5.20;4.40;;;20.10;99.90;;;;;;5096758;28;20476;-34
2022/06/11 03:03:06;;;;;;;7.60;4.47;;;20.10;99.90;;;;;;5096576;28;20423;-34
2022/06/11 03:05:36;;;;;;;6.07;4.00;;;20.10;99.90;;;;;;5095281;28;20458;-33
2022/06/11 03:08:05;;;;;;;4.53;4.10;;;20.10;99.90;;;;;;5096326;28;20442;-36
2022/06/11 03:10:33;;;;;;;4.73;4.27;;;20.10;99.90;;;;;;5096515;28;20510;-32
2022/06/11 03:13:00;;;;;;;6.10;4.27;;;20.10;99.90;;;;;;5096019;28;20445;-35
2022/06/11 03:15:27;;;;;;;5.30;3.77;;;20.20;99.90;;;;;;5096447;28;20426;-34
2022/06/11 03:17:56;;;;;;;4.60;3.90;;;20.20;99.90;;;;;;5082425;28;20476;-35
2022/06/11 03:20:28;;;;;;;5.60;4.20;;;20.20;99.90;;;;;;5092905;28;20439;-34
2022/06/11 03:22:55;;;;;;;10.73;4.60;;;20.20;99.90;;;;;;5096197;28;20465;-35
2022/06/11 03:25:22;;;;;;;5.60;4.50;;;20.20;99.90;;;;;;5091932;28;20445;-35
2022/06/11 03:27:49;;;;;;;4.03;3.73;;;20.20;99.90;;;;;;5067331;28;20498;-36
2022/06/11 03:30:18;;;;;;;6.00;4.70;;;20.30;99.90;;;;;;5066516;28;20494;-35
2022/06/11 03:32:47;;;;;;;10.80;4.73;;;20.30;99.90;;;;;;5059958;28;20523;-36
2022/06/11 03:35:15;;;;;;;6.47;4.93;;;20.40;99.90;;;;;;5066916;28;20535;-34
2022/06/11 03:37:44;;;;;;;4.93;3.87;;;20.40;99.90;;;;;;5068431;28;20443;-37
2022/06/11 03:40:15;;;;;;;5.50;3.67;;;20.40;99.90;;;;;;5064464;28;20515;-36
2022/06/11 03:42:42;;;;;;;4.70;4.20;;;20.50;99.90;;;;;;5068312;28;20436;-37
2022/06/11 03:45:13;;;;;;;5.60;4.10;;;20.50;99.90;;;;;;5072113;28;20458;-33
2022/06/11 03:47:43;;;;;;;5.20;4.50;;;20.50;99.90;;;;;;5062939;28;20566;-39
2022/06/11 03:50:23;;;;;;;6.87;3.87;;;20.50;99.90;;;;;;5066420;28;20510;-34
2022/06/11 03:52:54;;;;;;;4.13;3.60;;;20.50;99.90;;;;;;5066767;28;20488;-36
2022/06/11 03:55:22;;;;;;;4.00;3.70;;;20.50;99.90;;;;;;5067419;28;20435;-36
2022/06/11 03:57:50;;;;;;;7.50;3.83;;;20.60;99.90;;;;;;5094404;28;20456;-38
2022/06/11 04:03:05;;;;;;;5.97;3.60;;;20.60;99.90;;;;;;5072935;28;20447;-36
2022/06/11 04:05:36;;;;;;;4.10;3.70;;;20.60;99.90;;;;;;5074345;28;20955;-36
2022/06/11 04:08:05;;;;;;;5.57;3.50;;;20.60;99.90;;;;;;5068089;28;20443;-35
2022/06/11 04:10:34;;;;;;;4.80;4.00;;;20.70;99.90;;;;;;5068799;28;20490;-35
2022/06/11 04:13:01;;;;;;;4.90;4.40;;;20.70;99.90;;;;;;5073969;28;20451;-36
2022/06/11 04:15:29;;;;;;;4.40;3.30;;;20.70;99.90;;;;;;5067900;28;20439;-36
2022/06/11 04:17:56;;;;;;;4.83;4.27;;;20.80;99.90;;;;;;5075052;28;20510;-35
2022/06/11 04:20:24;;;;;;;6.20;3.57;;;20.80;99.90;;;;;;5079453;28;20469;-33
2022/06/11 04:22:51;;;;;;;4.27;3.83;;;20.80;99.90;;;;;;5078793;28;20470;-34
2022/06/11 04:25:21;;;;;;;3.90;3.50;;;20.90;99.90;;;;;;5078768;28;20475;-34
2022/06/11 04:27:53;;;;;;;9.40;3.90;;;20.90;99.90;;;;;;5062331;28;20973;-35
2022/06/11 04:30:25;;;;;;;4.90;3.73;;;20.90;99.90;;;;;;5077397;28;20467;-35
2022/06/11 04:32:55;;;;;;;6.70;3.67;;;20.90;99.90;;;;;;5077988;28;20436;-38
2022/06/11 04:35:22;;;;;;;6.70;3.73;;;20.90;99.90;;;;;;5077909;28;20430;-36
2022/06/11 04:37:49;;;;;;;5.80;3.90;;;21.00;99.90;;;;;;5075827;28;20566;-39
2022/06/11 04:40:19;;;;;;;5.30;3.70;;;21.00;99.90;;;;;;5076952;28;20482;-38
2022/06/11 04:42:45;;;;;;;4.87;3.37;;;21.00;99.90;;;;;;5078060;28;20455;-36
2022/06/11 04:45:13;;;;;;;3.97;3.43;;;21.10;99.90;;;;;;5077855;28;20427;-36
2022/06/11 04:47:40;;;;;;;4.20;3.30;;;21.10;99.90;;;;;;5078335;28;20463;-35
2022/06/11 04:50:17;;;;;;;3.97;3.50;;;21.10;99.90;;;;;;5077728;28;20507;-32
2022/06/11 04:52:46;;;;;;;3.83;3.40;;;21.10;99.90;;;;;;5077738;28;20521;-32
2022/06/11 04:55:13;;;;;;;3.90;3.33;;;21.20;99.90;;;;;;5077675;28;20510;-35
2022/06/11 04:57:47;;;;;;;5.50;3.80;;;21.20;99.90;;;;;;5077614;28;20443;-36
2022/06/11 05:00:18;;;;;;;3.93;3.53;;;21.20;99.90;;;;;;5077338;28;20451;-35
2022/06/11 05:02:48;;;;;;;4.00;3.63;;;21.30;99.90;;;;;;5077712;28;20471;-36
2022/06/11 05:05:15;;;;;;;4.77;3.50;;;21.30;99.90;;;;;;5077495;28;20522;-36
2022/06/11 05:07:43;;;;;;;3.70;3.40;;;21.30;99.90;;;;;;5078108;28;20487;-36
2022/06/11 05:10:14;;;;;;;4.83;3.43;;;21.30;99.90;;;;;;5078064;28;20478;-36
2022/06/11 05:12:47;;;;;;;5.80;2.77;;;21.30;99.90;;;;;;5077781;28;20514;-35
2022/06/11 05:15:15;;;;;;;6.80;4.63;;;21.40;99.90;;;;;;5077832;28;20447;-35
2022/06/11 05:17:45;;;;;;;4.17;3.77;;;21.40;99.90;;;;;;5077778;28;20459;-33
2022/06/11 05:20:14;;;;;;;7.43;4.10;;;21.40;99.90;;;;;;5077937;28;20446;-35
2022/06/11 05:22:42;;;;;;;6.07;4.00;;;21.40;99.90;;;;;;5077064;28;20451;-35
2022/06/11 05:25:10;;;;;;;3.40;3.13;;;21.50;99.90;;;;;;5077425;28;20449;-36
2022/06/11 05:27:42;;;;;;;6.70;4.30;;;21.50;99.90;;;;;;5077764;28;20471;-33
2022/06/11 05:30:16;;;;;;;3.97;3.23;;;21.50;99.90;;;;;;5076700;28;20491;-38
2022/06/11 05:32:46;;;;;;;6.10;3.60;;;21.50;99.90;;;;;;5077332;28;20442;-33
2022/06/11 05:35:16;;;;;;;6.90;4.47;;;21.60;99.90;;;;;;5077405;28;20467;-34
2022/06/11 05:37:50;;;;;;;3.97;3.63;;;21.60;99.90;;;;;;5076689;28;20419;-36
2022/06/11 05:40:20;;;;;;;6.03;4.20;;;21.70;99.90;;;;;;5076811;28;20443;-37
2022/06/11 05:42:50;;;;;;;4.90;3.80;;;21.70;99.90;;;;;;5076854;28;20451;-35
2022/06/11 05:45:20;;;;;;;8.10;4.70;;;21.80;99.90;;;;;;5076614;28;20443;-32
2022/06/11 05:47:53;;;;;;;4.90;3.80;;;21.90;99.90;;;;;;5076696;28;20515;-36
2022/06/11 05:50:27;;;;;;;5.30;3.43;;;22.00;99.90;;;;;;5076234;28;20502;-38
2022/06/11 05:52:57;;;;;;;4.23;3.53;;;22.10;99.90;;;;;;5076136;28;20487;-38
2022/06/11 05:55:34;;;;;;;3.10;2.90;;;22.20;99.90;;;;;;5074935;28;20564;-36
2022/06/11 05:58:04;;;;;;;4.67;3.80;;;22.20;99.90;;;;;;5075610;28;20430;-35
2022/06/11 06:00:34;;;;;;;4.87;3.70;;;22.30;99.90;;;;;;5076399;28;20524;-34
2022/06/11 06:03:02;;;;;;;5.80;3.50;;;22.30;99.90;;;;;;5076458;28;20443;-37
2022/06/11 06:05:31;;;;;;;4.90;3.73;;;22.40;99.90;;;;;;5076343;28;20482;-42
2022/06/11 06:07:58;;;;;;;6.20;3.90;;;22.50;99.90;;;;;;5076235;28;20523;-35
2022/06/11 06:10:25;;;;;;;3.63;3.20;;;22.60;99.90;;;;;;5076181;28;20570;-36
2022/06/11 06:12:52;;;;;;;5.10;4.60;;;22.60;99.90;;;;;;5076393;28;20408;-36
2022/06/11 06:15:30;;;;;;;4.13;3.40;;;22.70;99.90;;;;;;5077101;28;20436;-39
2022/06/11 06:17:58;;;;;;;6.20;3.50;;;22.80;99.90;;;;;;5076498;28;20458;-37
2022/06/11 06:20:25;;;;;;;3.97;3.30;;;22.90;99.90;;;;;;5076171;28;20454;-35
2022/06/11 06:22:52;;;;;;;5.43;4.10;;;23.00;99.90;;;;;;5076324;28;20463;-39
2022/06/11 06:25:22;;;;;;;5.83;3.67;;;23.00;99.90;;;;;;5076139;28;20460;-39
2022/06/11 06:27:55;;;;;;;17.40;5.40;;;23.00;99.90;;;;;;5076119;28;20467;-36
2022/06/11 06:30:22;;;;;;;8.23;5.50;;;23.10;99.90;;;;;;5075575;28;20472;-37
2022/06/11 06:32:50;;;;;;;8.90;5.43;;;23.10;99.90;;;;;;5074863;28;20511;-36
2022/06/11 06:35:21;;;;;;;5.43;3.63;;;23.20;99.70;;;;;;5075679;28;20447;-35
2022/06/11 06:37:48;;;;;;;4.43;3.70;;;23.20;99.60;;;;;;5075619;28;20962;-37
2022/06/11 06:40:15;;;;;;;9.70;4.50;;;23.40;99.00;;;;;;5075164;28;20439;-36
2022/06/11 06:42:50;;;;;;;5.23;3.43;;;23.40;98.60;;;;;;5075555;28;20458;-35
2022/06/11 06:45:17;;;;;;;7.87;4.17;;;23.40;98.40;;;;;;5074938;28;20455;-32
2022/06/11 06:47:44;;;;;;;5.07;3.30;;;23.40;98.30;;;;;;5075295;28;20443;-33
2022/06/11 06:50:11;;;;;;;4.50;4.00;;;23.50;98.10;;;;;;5075136;28;20562;-35
2022/06/11 06:52:39;;;;;;;6.53;4.10;;;23.60;97.60;;;;;;5075093;28;20489;-35
2022/06/11 06:55:07;;;;;;;4.87;3.83;;;23.70;97.90;;;;;;5075280;28;20524;-37
2022/06/11 06:57:34;;;;;;;5.97;3.40;;;23.80;96.80;;;;;;5075307;28;20435;-36
2022/06/11 07:00:03;;;;;;;3.43;3.13;;;24.00;96.20;;;;;;5075400;28;20770;-38
2022/06/11 07:02:30;;;;;;;5.57;3.43;;;24.00;96.20;;;;;;5075102;28;20447;-42
2022/06/11 07:04:59;;;;;;;4.10;3.03;;;24.20;96.30;;;;;;5074975;28;20435;-34
2022/06/11 07:07:26;;;;;;;6.80;4.50;;;24.30;96.50;;;;;;5074489;28;20458;-36
2022/06/11 07:09:55;;;;;;;3.80;3.43;;;24.40;96.30;;;;;;5072240;28;20491;-36
2022/06/11 07:12:23;;;;;;;6.20;3.27;;;24.50;96.10;;;;;;5073631;28;20479;-35
2022/06/11 07:14:50;;;;;;;8.73;3.60;;;24.70;95.50;;;;;;5073803;28;20502;-37
2022/06/11 07:17:18;;;;;;;5.43;3.70;;;24.70;95.10;;;;;;5073700;28;20527;-38
2022/06/11 07:19:51;;;;;;;3.67;3.23;;;24.70;94.70;;;;;;5073854;28;20426;-36
2022/06/11 07:22:22;;;;;;;6.93;3.50;;;24.80;94.80;;;;;;5065440;28;20467;-37
2022/06/11 07:24:49;;;;;;;7.43;3.57;;;24.90;94.00;;;;;;5073223;28;20507;-37
2022/06/11 07:27:22;;;;;;;4.47;3.30;;;25.00;93.80;;;;;;5074481;28;20454;-36
2022/06/11 07:29:53;;;;;;;3.00;2.80;;;25.00;93.60;;;;;;5073667;28;20474;-36
2022/06/11 07:32:22;;;;;;;9.37;4.37;;;25.20;93.30;;;;;;5074284;28;20442;-38
2022/06/11 07:34:49;;;;;;;8.73;3.63;;;25.40;92.90;;;;;;5073537;28;20527;-38
2022/06/11 07:37:17;;;;;;;7.63;3.20;;;25.60;92.70;;;;;;5058492;28;20447;-35
2022/06/11 07:39:44;;;;;;;6.40;3.30;;;25.80;92.10;;;;;;5074136;28;20459;-37
2022/06/11 07:42:11;;;;;;;4.70;3.80;;;25.80;91.80;;;;;;5074673;28;20452;-37
2022/06/11 07:44:39;;;;;;;4.83;3.20;;;25.90;91.60;;;;;;5074292;28;20447;-34
2022/06/11 07:47:07;;;;;;;3.70;3.40;;;26.00;91.70;;;;;;5074102;28;20430;-35
2022/06/11 07:49:34;;;;;;;6.70;3.43;;;26.20;91.30;;;;;;5074260;28;20486;-36
2022/06/11 07:52:04;;;;;;;4.80;3.20;;;26.60;90.80;;;;;;5074111;28;20515;-36
2022/06/11 07:54:33;;;;;;;7.40;5.13;;;27.00;90.10;;;;;;5074199;28;20447;-35
2022/06/11 07:57:00;;;;;;;4.90;4.37;;;27.50;87.00;;;;;;5073625;28;20494;-36
2022/06/11 07:59:29;;;;;;;3.30;2.97;;;27.50;84.30;;;;;;5070166;28;20781;-37
2022/06/11 08:01:58;;;;;;;4.83;4.27;;;27.50;84.50;;;;;;5064917;28;20469;-37
2022/06/11 08:04:24;;;;;;;3.50;3.20;;;27.70;82.80;;;;;;5073625;28;20455;-37
2022/06/11 08:06:51;;;;;;;5.90;3.53;;;27.80;81.80;;;;;;5073631;28;20447;-37
2022/06/11 08:09:18;;;;;;;4.50;4.00;;;27.90;81.30;;;;;;5073362;28;20470;-36
2022/06/11 08:11:45;;;;;;;8.50;3.40;;;28.10;80.00;;;;;;5072402;28;20439;-39
2022/06/11 08:14:12;;;;;;;5.50;4.30;;;28.00;79.90;;;;;;5072659;28;20467;-39
2022/06/11 08:16:38;;;;;;;4.70;3.33;;;28.10;78.90;;;;;;5058519;28;20490;-37
2022/06/11 08:19:07;;;;;;;4.20;3.17;;;28.30;76.00;;;;;;5071010;28;20502;-38
2022/06/11 08:21:34;;;;;;;3.80;3.03;;;28.40;75.90;;;;;;5065311;28;20442;-37
2022/06/11 08:24:00;;;;;;;4.00;3.23;;;28.70;74.60;;;;;;5073421;28;20470;-37
2022/06/11 08:26:27;;;;;;;4.27;2.50;;;29.00;73.10;;;;;;5073499;28;20461;-35
2022/06/11 08:28:54;;;;;;;5.97;3.17;;;29.10;71.10;;;;;;5073456;28;20503;-37
2022/06/11 08:31:21;;;;;;;4.20;3.80;;;29.30;70.60;;;;;;5070224;28;20557;-36
2022/06/11 08:33:48;;;;;;;3.17;2.70;;;29.30;69.70;;;;;;5072862;28;20486;-36
2022/06/11 08:36:18;;;;;;;3.80;2.60;;;29.30;69.00;;;;;;5073745;28;20539;-35
2022/06/11 08:38:45;;;;;;;3.37;2.73;;;29.50;68.40;;;;;;5073109;28;20427;-36
2022/06/11 08:41:17;;;;;;;3.37;2.47;;;29.80;66.20;;;;;;5073068;28;20463;-34
2022/06/11 08:43:53;;;;;;;2.93;2.60;;;30.00;65.60;;;;;;5073271;28;20499;-35
2022/06/11 08:46:25;;;;;;;6.87;2.77;;;30.00;65.50;;;;;;5073193;28;20454;-37
2022/06/11 08:49:07;;;;;;;5.70;3.77;;;30.10;65.10;;;;;;5073235;28;20426;-36
2022/06/11 08:51:41;;;;;;;2.97;2.77;;;30.20;63.30;;;;;;5070580;28;20479;-38
2022/06/11 08:54:11;;;;;;;6.23;2.87;;;30.40;63.20;;;;;;5065028;28;20441;-36
2022/06/11 08:56:45;;;;;;;3.40;2.87;;;30.70;62.20;;;;;;5072046;28;20490;-36
2022/06/11 08:59:44;;;;;;;3.00;2.70;;;31.00;61.70;;;;;;5076907;28;20436;-39
2022/06/11 09:02:28;;;;;;;5.53;3.33;;;31.30;60.70;;;;;;5077184;28;20484;-38
2022/06/11 09:05:09;;;;;;;4.63;3.10;;;31.30;59.70;;;;;;5077405;28;20413;-36
2022/06/11 09:07:48;;;;;;;3.00;2.30;;;31.50;58.90;;;;;;5076991;28;20420;-38
2022/06/11 09:10:31;;;;;;;3.10;2.70;;;31.80;57.80;;;;;;5075106;28;20968;-36
2022/06/11 09:13:14;;;;;;;5.20;2.43;;;32.20;57.20;;;;;;5077086;28;20417;-37
2022/06/11 09:15:49;;;;;;;3.73;2.10;;;32.80;55.90;;;;;;5076174;28;20467;-38
2022/06/11 09:18:46;;;;;;;5.83;2.50;;;32.90;55.40;;;;;;5075302;28;20443;-40
2022/06/11 09:21:27;;;;;;;8.27;2.50;;;32.70;55.30;;;;;;5074652;28;20834;-39
2022/06/11 09:24:24;;;;;;;3.47;2.30;;;32.40;54.80;;;;;;5075045;28;20430;-38
2022/06/11 09:26:58;;;;;;;4.60;2.87;;;32.30;55.00;;;;;;5076073;28;20471;-35
2022/06/11 09:29:29;;;;;;;3.63;2.63;;;32.40;55.30;;;;;;5076941;28;20437;-38
2022/06/11 09:32:02;;;;;;;2.90;2.70;;;32.10;55.50;;;;;;5076306;28;20487;-36
2022/06/11 09:34:36;;;;;;;3.47;2.90;;;32.10;55.10;;;;;;5067878;28;20436;-37
2022/06/11 09:37:10;;;;;;;2.83;2.63;;;32.30;55.30;;;;;;5070245;28;20501;-38
2022/06/11 09:39:43;;;;;;;7.50;3.17;;;32.20;54.90;;;;;;5076287;28;20433;-39
2022/06/11 09:42:42;;;;;;;2.83;2.53;;;32.20;55.20;;;;;;5076325;28;20455;-34
2022/06/11 09:45:18;;;;;;;7.40;2.67;;;32.00;54.80;;;;;;5066678;28;20423;-34
2022/06/11 09:47:54;;;;;;;2.20;2.00;;;31.60;55.50;;;;;;5071052;28;20466;-34
2022/06/11 09:50:26;;;;;;;3.77;2.10;;;31.10;55.40;;;;;;5076397;28;20470;-37
2022/06/11 09:53:04;;;;;;;5.30;2.73;;;30.60;55.50;;;;;;5076208;28;20433;-37
2022/06/11 09:55:42;;;;;;;3.80;1.93;;;30.60;56.20;;;;;;5066999;28;20518;-35
2022/06/11 09:58:20;;;;;;;2.40;1.83;;;30.50;55.40;;;;;;5070288;28;20443;-39
2022/06/11 10:00:53;;;;;;;3.00;1.83;;;30.60;55.50;;;;;;5065644;28;20434;-36
2022/06/11 10:03:28;;;;;;;3.63;2.40;;;30.90;55.30;;;;;;5075843;28;20538;-36
2022/06/11 10:06:00;;;;;;;3.90;3.50;;;30.90;55.30;;;;;;5076282;28;20528;-35
2022/06/11 10:08:38;;;;;;;2.70;2.23;;;31.50;54.40;;;;;;5075580;28;20472;-35
2022/06/11 10:11:14;;;;;;;3.23;2.20;;;32.30;53.50;;;;;;5075994;28;20518;-38
2022/06/11 10:13:46;;;;;;;2.63;1.80;;;32.80;52.90;;;;;;5076373;28;20487;-34
2022/06/11 10:16:31;;;;;;;3.70;2.27;;;33.60;52.50;;;;;;5076014;28;20458;-36
2022/06/11 10:19:14;;;;;;;2.37;2.17;;;34.40;50.20;;;;;;5072732;28;20838;-38
2022/06/11 10:21:49;;;;;;;7.53;5.33;;;34.50;49.70;;;;;;5064731;28;20463;-36
2022/06/11 10:24:18;;;;;;;2.60;1.80;;;34.10;49.90;;;;;;5060209;28;20439;-36
2022/06/11 10:26:54;;;;;;;13.73;3.93;;;33.20;49.40;;;;;;5064294;28;20493;-38
2022/06/11 10:29:28;;;;;;;3.50;2.47;;;32.40;50.40;;;;;;5071558;28;20516;-32
2022/06/11 10:32:01;;;;;;;5.77;2.83;;;32.10;51.10;;;;;;5074960;28;20477;-39
2022/06/11 10:34:31;;;;;;;3.87;2.43;;;32.10;51.80;;;;;;5074729;28;20455;-39
2022/06/11 10:37:05;;;;;;;4.53;2.60;;;31.90;51.90;;;;;;5074198;28;20423;-35
2022/06/11 10:39:39;;;;;;;2.90;1.70;;;31.40;51.30;;;;;;5074830;28;20428;-38
2022/06/11 10:42:13;;;;;;;2.47;1.90;;;30.90;51.00;;;;;;5059372;28;20562;-36
2022/06/11 10:44:43;;;;;;;1.77;1.63;;;30.40;51.80;;;;;;5074345;28;20561;-35
2022/06/11 10:47:16;;;;;;;1.87;1.67;;;30.10;51.80;;;;;;5075352;28;20477;-37
2022/06/11 10:49:44;;;;;;;2.63;2.00;;;29.70;52.60;;;;;;5074346;28;20473;-34
2022/06/11 10:52:23;;;;;;;2.17;1.90;;;29.30;53.30;;;;;;5075224;28;20479;-37
2022/06/11 10:54:49;;;;;;;2.30;1.43;;;29.10;54.00;;;;;;5074948;28;20570;-36
2022/06/11 10:57:25;;;;;;;2.60;1.67;;;28.90;54.80;;;;;;5074527;28;20446;-36
2022/06/11 10:59:56;;;;;;;1.53;1.43;;;28.80;54.40;;;;;;5073353;28;20427;-37
2022/06/11 11:02:29;;;;;;;3.03;1.67;;;29.00;54.90;;;;;;5074447;28;20451;-35
2022/06/11 11:04:59;;;;;;;2.23;2.03;;;29.20;55.30;;;;;;5062965;28;20435;-35
2022/06/11 11:07:27;;;;;;;3.17;1.97;;;29.40;55.10;;;;;;5065691;28;20432;-38
2022/06/11 11:10:00;;;;;;;2.70;2.10;;;29.50;55.80;;;;;;5063941;28;20489;-38
2022/06/11 11:12:33;;;;;;;2.47;2.00;;;29.40;55.50;;;;;;5069510;28;20487;-36
2022/06/11 11:15:12;;;;;;;3.03;2.03;;;29.20;55.70;;;;;;5064416;28;20479;-36
2022/06/11 11:17:46;;;;;;;2.73;1.67;;;28.80;56.70;;;;;;5069617;28;20482;-36
2022/06/11 11:20:32;;;;;;;2.43;1.90;;;28.60;57.10;;;;;;5067620;28;20436;-37
2022/06/11 11:23:23;;;;;;;4.07;2.13;;;28.50;57.60;;;;;;5064600;28;20657;-39
2022/06/11 11:25:54;;;;;;;3.63;2.60;;;28.40;58.20;;;;;;5063698;28;20478;-35
2022/06/11 11:28:30;;;;;;;3.70;2.23;;;28.40;58.30;;;;;;5061620;28;20486;-36
2022/06/11 11:31:05;;;;;;;2.80;1.80;;;28.70;58.30;;;;;;5062243;28;20549;-36
2022/06/11 11:33:34;;;;;;;3.30;2.10;;;28.80;57.50;;;;;;5061510;28;20427;-36
2022/06/11 11:36:11;;;;;;;2.27;1.60;;;29.10;57.30;;;;;;5060219;28;20469;-37
2022/06/11 11:38:38;;;;;;;3.00;2.33;;;29.30;56.20;;;;;;5063456;28;20430;-36
2022/06/11 11:41:05;;;;;;;3.60;2.10;;;29.40;55.80;;;;;;5061360;28;20474;-36
2022/06/11 11:43:40;;;;;;;2.30;2.10;;;29.20;55.90;;;;;;5082427;28;20481;-36
2022/06/11 11:46:12;;;;;;;6.53;2.13;;;29.20;56.30;;;;;;5094181;28;20478;-36
2022/06/11 11:48:46;;;;;;;2.20;1.67;;;29.30;56.40;;;;;;5094641;28;20746;-36
2022/06/11 11:51:20;;;;;;;4.07;2.40;;;29.60;56.50;;;;;;5094288;28;20462;-37
2022/06/11 11:53:50;;;;;;;4.30;2.50;;;29.80;55.80;;;;;;5094080;28;20807;-36
2022/06/11 11:56:26;;;;;;;3.20;2.50;;;29.70;56.00;;;;;;5093266;28;20474;-36
2022/06/11 11:58:56;;;;;;;4.40;3.10;;;29.60;56.00;;;;;;5093631;28;20481;-35
2022/06/11 12:01:27;;;;;;;3.33;1.90;;;29.50;55.40;;;;;;5080112;28;20495;-36
2022/06/11 12:04:04;;;;;;;2.70;2.30;;;29.40;55.70;;;;;;5072782;28;20526;-38
2022/06/11 12:06:33;;;;;;;2.63;2.10;;;29.30;56.40;;;;;;5081840;28;20450;-37
2022/06/11 12:09:06;;;;;;;5.63;2.50;;;29.10;56.40;;;;;;5094347;28;20691;-40
2022/06/11 12:11:37;;;;;;;1.80;1.70;;;29.00;56.70;;;;;;5094105;28;20719;-37
2022/06/11 12:14:15;;;;;;;2.30;1.87;;;28.80;56.10;;;;;;5094462;28;20466;-37
2022/06/11 12:16:50;;;;;;;2.80;2.00;;;28.70;56.70;;;;;;5094461;28;20487;-32
2022/06/11 12:19:25;;;;;;;3.50;1.90;;;28.70;56.80;;;;;;5092084;28;20564;-33
2022/06/11 12:21:57;;;;;;;2.73;1.70;;;28.80;57.30;;;;;;5092489;28;20482;-36
2022/06/11 12:24:29;;;;;;;2.30;1.93;;;28.80;57.20;;;;;;5090594;28;20487;-37
2022/06/11 12:27:01;;;;;;;2.30;2.03;;;28.70;56.70;;;;;;5082707;28;20705;-37
2022/06/11 12:29:35;;;;;;;3.33;1.90;;;28.60;57.20;;;;;;5079316;28;20478;-33
2022/06/11 12:32:17;;;;;;;3.07;2.03;;;28.60;57.40;;;;;;5073187;28;20485;-34
2022/06/11 12:34:51;;;;;;;2.07;1.90;;;28.50;57.00;;;;;;5068613;28;20470;-36
2022/06/11 12:37:27;;;;;;;2.97;2.27;;;28.30;57.30;;;;;;5066795;28;20494;-36
2022/06/11 12:40:06;;;;;;;4.30;2.30;;;28.00;59.90;;;;;;5075036;28;20427;-36
2022/06/11 12:42:38;;;;;;;2.40;2.20;;;27.80;63.70;;;;;;5074530;28;20431;-38
2022/06/11 12:45:24;;;;;;;2.73;2.43;;;27.60;65.50;;;;;;5065824;28;20470;-35
2022/06/11 12:48:10;;;;;;;3.50;2.70;;;27.20;67.10;;;;;;5067710;28;20463;-38
2022/06/11 12:50:48;;;;;;;4.73;2.50;;;26.90;67.60;;;;;;5067098;28;20471;-36
2022/06/11 12:53:31;;;;;;;3.80;2.60;;;26.80;68.40;;;;;;5074968;28;20441;-37
2022/06/11 12:56:14;;;;;;;8.80;3.40;;;26.80;68.90;;;;;;5075217;28;20423;-37
2022/06/11 12:59:05;;;;;;;2.70;2.50;;;26.70;68.90;;;;;;5075492;28;20423;-38
2022/06/11 13:01:42;;;;;;;5.47;2.53;;;26.70;69.30;;;;;;5073470;28;20551;-35
2022/06/11 13:04:26;;;;;;;4.83;2.67;;;26.70;69.60;;;;;;5076636;28;20498;-37
2022/06/11 13:07:07;;;;;;;6.47;3.27;;;26.70;69.80;;;;;;5076487;28;20442;-36
2022/06/11 13:09:44;;;;;;;3.40;2.50;;;26.80;69.00;;;;;;5076476;28;20455;-37
2022/06/11 13:12:23;;;;;;;3.10;2.43;;;27.00;68.80;;;;;;5076578;28;20475;-38
2022/06/11 13:15:09;;;;;;;2.57;2.23;;;27.00;68.70;;;;;;5076063;28;20426;-38